Alexandria, Minnesota
Current Conditions -  °F | °C
As of 3:53 PM on Wednesday 28 Jan 2015 (Local Time) from KAXN Reporting Station
Moderate Fog Moderate Fog  
Wind Chill: 22°   Ceiling: 200
Heat Index: 30°   Visibility: 0.5mi
Dew Point: 30°   Wind: 8mph
Humidity: 100%   Direction: 160°SSE
Pressure: 29.77"   Gusts: NA
Location:  45.89°N, 95.37°W
Report Text: KAXN 282153Z AUTO 16007KT 1/2SM FZFG OVC002 M01/M01 A2977 RMK AO2 SLP098 T10111011
Loading
Personal Weather Stations






























Interactive Weather Map New forecast layout! Learn more

10-Day Weather Forecast

Advertisements
Track Severe Weather on mobile